sensor_id;sensor_type;location;lat;lon;timestamp;P1;durP1;ratioP1;P2;durP2;ratioP2
42978;SDS011;28616;44.746;19.678;2023-04-01T00:00:17;26.58;;;10.63;;
42978;SDS011;28616;44.746;19.678;2023-04-01T00:02:43;28.63;;;11.73;;
42978;SDS011;28616;44.746;19.678;2023-04-01T00:05:09;29.88;;;12.27;;
42978;SDS011;28616;44.746;19.678;2023-04-01T00:07:36;117.07;;;55.13;;
42978;SDS011;28616;44.746;19.678;2023-04-01T00:10:04;42.38;;;17.02;;
42978;SDS011;28616;44.746;19.678;2023-04-01T00:12:35;31.48;;;13.02;;
42978;SDS011;28616;44.746;19.678;2023-04-01T00:15:02;22.33;;;8.75;;
42978;SDS011;28616;44.746;19.678;2023-04-01T00:17:29;18.48;;;8.57;;
42978;SDS011;28616;44.746;19.678;2023-04-01T00:19:55;20.70;;;8.25;;
42978;SDS011;28616;44.746;19.678;2023-04-01T00:22:21;21.50;;;7.93;;
42978;SDS011;28616;44.746;19.678;2023-04-01T00:24:47;17.77;;;7.20;;
42978;SDS011;28616;44.746;19.678;2023-04-01T00:27:13;19.73;;;7.07;;
42978;SDS011;28616;44.746;19.678;2023-04-01T00:29:44;21.52;;;7.07;;
42978;SDS011;28616;44.746;19.678;2023-04-01T00:32:11;22.77;;;6.80;;
42978;SDS011;28616;44.746;19.678;2023-04-01T00:34:37;19.60;;;7.90;;
42978;SDS011;28616;44.746;19.678;2023-04-01T00:37:04;20.38;;;7.53;;
42978;SDS011;28616;44.746;19.678;2023-04-01T00:39:31;25.85;;;10.25;;
42978;SDS011;28616;44.746;19.678;2023-04-01T00:41:58;30.20;;;13.57;;
42978;SDS011;28616;44.746;19.678;2023-04-01T00:44:24;54.08;;;20.92;;
42978;SDS011;28616;44.746;19.678;2023-04-01T00:46:52;40.15;;;14.48;;
42978;SDS011;28616;44.746;19.678;2023-04-01T00:49:19;38.60;;;15.88;;
42978;SDS011;28616;44.746;19.678;2023-04-01T00:51:48;26.73;;;10.25;;
42978;SDS011;28616;44.746;19.678;2023-04-01T00:54:18;18.67;;;6.47;;
42978;SDS011;28616;44.746;19.678;2023-04-01T00:57:08;23.77;;;8.55;;
42978;SDS011;28616;44.746;19.678;2023-04-01T00:59:39;18.77;;;8.57;;
42978;SDS011;28616;44.746;19.678;2023-04-01T01:02:13;12.95;;;5.85;;
42978;SDS011;28616;44.746;19.678;2023-04-01T01:04:39;18.15;;;6.10;;
42978;SDS011;28616;44.746;19.678;2023-04-01T01:18:02;49.08;;;22.48;;
42978;SDS011;28616;44.746;19.678;2023-04-01T01:31:56;20.50;;;6.75;;
42978;SDS011;28616;44.746;19.678;2023-04-01T01:37:33;15.23;;;6.10;;
42978;SDS011;28616;44.746;19.678;2023-04-01T01:40:01;18.25;;;7.05;;
42978;SDS011;28616;44.746;19.678;2023-04-01T01:42:31;26.52;;;11.68;;
42978;SDS011;28616;44.746;19.678;2023-04-01T01:45:01;20.40;;;7.32;;
42978;SDS011;28616;44.746;19.678;2023-04-01T01:47:28;21.75;;;8.55;;
42978;SDS011;28616;44.746;19.678;2023-04-01T01:49:55;31.80;;;13.80;;
42978;SDS011;28616;44.746;19.678;2023-04-01T01:52:22;20.80;;;9.57;;
42978;SDS011;28616;44.746;19.678;2023-04-01T01:54:49;21.77;;;9.55;;
42978;SDS011;28616;44.746;19.678;2023-04-01T01:57:20;13.18;;;5.90;;
42978;SDS011;28616;44.746;19.678;2023-04-01T01:59:59;11.20;;;5.68;;
42978;SDS011;28616;44.746;19.678;2023-04-01T02:02:39;13.68;;;5.32;;
42978;SDS011;28616;44.746;19.678;2023-04-01T02:05:14;14.75;;;5.43;;
42978;SDS011;28616;44.746;19.678;2023-04-01T02:07:44;13.35;;;5.50;;
42978;SDS011;28616;44.746;19.678;2023-04-01T02:10:16;15.98;;;6.75;;
42978;SDS011;28616;44.746;19.678;2023-04-01T02:12:44;15.38;;;5.03;;
42978;SDS011;28616;44.746;19.678;2023-04-01T02:15:12;11.80;;;5.28;;
42978;SDS011;28616;44.746;19.678;2023-04-01T02:17:43;13.65;;;5.00;;
42978;SDS011;28616;44.746;19.678;2023-04-01T02:20:13;13.70;;;5.05;;
42978;SDS011;28616;44.746;19.678;2023-04-01T02:22:53;13.17;;;6.30;;
42978;SDS011;28616;44.746;19.678;2023-04-01T02:25:22;17.63;;;4.60;;
42978;SDS011;28616;44.746;19.678;2023-04-01T02:27:50;11.95;;;4.80;;
42978;SDS011;28616;44.746;19.678;2023-04-01T02:30:17;14.02;;;4.15;;
42978;SDS011;28616;44.746;19.678;2023-04-01T02:32:44;8.25;;;4.40;;
42978;SDS011;28616;44.746;19.678;2023-04-01T02:35:13;16.10;;;4.30;;
42978;SDS011;28616;44.746;19.678;2023-04-01T02:37:41;11.50;;;3.50;;
42978;SDS011;28616;44.746;19.678;2023-04-01T02:40:09;13.15;;;4.90;;
42978;SDS011;28616;44.746;19.678;2023-04-01T02:42:36;11.27;;;4.60;;
42978;SDS011;28616;44.746;19.678;2023-04-01T02:45:03;22.80;;;8.70;;
42978;SDS011;28616;44.746;19.678;2023-04-01T02:47:30;28.88;;;10.45;;
42978;SDS011;28616;44.746;19.678;2023-04-01T02:49:56;24.38;;;9.32;;
42978;SDS011;28616;44.746;19.678;2023-04-01T02:52:25;26.67;;;10.07;;
42978;SDS011;28616;44.746;19.678;2023-04-01T02:54:51;17.75;;;7.15;;
42978;SDS011;28616;44.746;19.678;2023-04-01T02:57:17;16.90;;;5.53;;
42978;SDS011;28616;44.746;19.678;2023-04-01T02:59:43;11.07;;;4.28;;
42978;SDS011;28616;44.746;19.678;2023-04-01T03:02:09;8.70;;;4.10;;
42978;SDS011;28616;44.746;19.678;2023-04-01T03:04:35;9.90;;;5.03;;
42978;SDS011;28616;44.746;19.678;2023-04-01T03:07:00;10.48;;;4.88;;
42978;SDS011;28616;44.746;19.678;2023-04-01T03:09:26;16.48;;;6.35;;
42978;SDS011;28616;44.746;19.678;2023-04-01T03:11:53;13.98;;;6.30;;
42978;SDS011;28616;44.746;19.678;2023-04-01T03:14:19;12.63;;;5.28;;
42978;SDS011;28616;44.746;19.678;2023-04-01T03:16:45;14.13;;;5.28;;
42978;SDS011;28616;44.746;19.678;2023-04-01T03:19:11;9.98;;;4.85;;
42978;SDS011;28616;44.746;19.678;2023-04-01T03:21:37;12.25;;;5.80;;
42978;SDS011;28616;44.746;19.678;2023-04-01T03:24:03;11.55;;;7.13;;
42978;SDS011;28616;44.746;19.678;2023-04-01T03:26:28;12.25;;;5.53;;
42978;SDS011;28616;44.746;19.678;2023-04-01T03:28:54;7.45;;;4.95;;
42978;SDS011;28616;44.746;19.678;2023-04-01T03:31:20;10.45;;;4.07;;
42978;SDS011;28616;44.746;19.678;2023-04-01T03:33:46;7.53;;;3.50;;
42978;SDS011;28616;44.746;19.678;2023-04-01T03:36:12;8.13;;;4.60;;
42978;SDS011;28616;44.746;19.678;2023-04-01T03:38:39;11.18;;;6.78;;
42978;SDS011;28616;44.746;19.678;2023-04-01T03:41:06;16.00;;;5.60;;
42978;SDS011;28616;44.746;19.678;2023-04-01T03:43:32;11.40;;;5.53;;
42978;SDS011;28616;44.746;19.678;2023-04-01T03:45:58;8.90;;;5.20;;
42978;SDS011;28616;44.746;19.678;2023-04-01T03:48:24;16.85;;;6.78;;
42978;SDS011;28616;44.746;19.678;2023-04-01T03:50:51;11.40;;;7.10;;
42978;SDS011;28616;44.746;19.678;2023-04-01T03:53:17;11.57;;;5.95;;
42978;SDS011;28616;44.746;19.678;2023-04-01T03:55:43;11.98;;;6.50;;
42978;SDS011;28616;44.746;19.678;2023-04-01T03:58:08;16.88;;;6.30;;
42978;SDS011;28616;44.746;19.678;2023-04-01T04:00:35;50.83;;;15.70;;
42978;SDS011;28616;44.746;19.678;2023-04-01T04:03:01;31.75;;;11.07;;
42978;SDS011;28616;44.746;19.678;2023-04-01T04:05:27;26.00;;;9.32;;
42978;SDS011;28616;44.746;19.678;2023-04-01T04:07:53;14.90;;;6.30;;
42978;SDS011;28616;44.746;19.678;2023-04-01T04:10:20;15.73;;;7.57;;
42978;SDS011;28616;44.746;19.678;2023-04-01T04:12:48;15.88;;;7.45;;
42978;SDS011;28616;44.746;19.678;2023-04-01T04:15:14;10.85;;;5.25;;
42978;SDS011;28616;44.746;19.678;2023-04-01T04:17:40;12.15;;;6.47;;
42978;SDS011;28616;44.746;19.678;2023-04-01T04:20:06;13.68;;;5.15;;
42978;SDS011;28616;44.746;19.678;2023-04-01T04:22:33;12.02;;;5.60;;
42978;SDS011;28616;44.746;19.678;2023-04-01T04:24:59;13.63;;;5.53;;
42978;SDS011;28616;44.746;19.678;2023-04-01T04:27:25;16.50;;;7.10;;
42978;SDS011;28616;44.746;19.678;2023-04-01T04:29:51;29.02;;;13.35;;
42978;SDS011;28616;44.746;19.678;2023-04-01T04:32:16;26.48;;;13.27;;
42978;SDS011;28616;44.746;19.678;2023-04-01T04:34:42;13.25;;;5.95;;
42978;SDS011;28616;44.746;19.678;2023-04-01T04:37:08;12.80;;;5.90;;
42978;SDS011;28616;44.746;19.678;2023-04-01T04:39:33;9.85;;;5.30;;
42978;SDS011;28616;44.746;19.678;2023-04-01T04:41:59;9.48;;;4.93;;
42978;SDS011;28616;44.746;19.678;2023-04-01T04:44:25;11.43;;;5.07;;
42978;SDS011;28616;44.746;19.678;2023-04-01T04:46:51;12.93;;;6.00;;
42978;SDS011;28616;44.746;19.678;2023-04-01T04:49:16;16.02;;;7.65;;
42978;SDS011;28616;44.746;19.678;2023-04-01T04:51:42;17.92;;;8.50;;
42978;SDS011;28616;44.746;19.678;2023-04-01T04:54:09;19.17;;;10.07;;
42978;SDS011;28616;44.746;19.678;2023-04-01T04:56:34;20.05;;;9.60;;
42978;SDS011;28616;44.746;19.678;2023-04-01T04:59:01;38.97;;;19.35;;
42978;SDS011;28616;44.746;19.678;2023-04-01T05:01:26;32.53;;;19.50;;
42978;SDS011;28616;44.746;19.678;2023-04-01T05:03:52;58.28;;;29.05;;
42978;SDS011;28616;44.746;19.678;2023-04-01T05:06:18;42.08;;;21.70;;
42978;SDS011;28616;44.746;19.678;2023-04-01T05:08:45;27.23;;;14.88;;
42978;SDS011;28616;44.746;19.678;2023-04-01T05:11:16;24.58;;;14.43;;
42978;SDS011;28616;44.746;19.678;2023-04-01T05:13:45;35.45;;;21.17;;
42978;SDS011;28616;44.746;19.678;2023-04-01T05:16:12;29.40;;;17.52;;
42978;SDS011;28616;44.746;19.678;2023-04-01T05:18:43;24.13;;;12.90;;
42978;SDS011;28616;44.746;19.678;2023-04-01T05:21:09;36.58;;;19.38;;
42978;SDS011;28616;44.746;19.678;2023-04-01T05:23:36;82.82;;;37.38;;
42978;SDS011;28616;44.746;19.678;2023-04-01T05:26:06;82.53;;;37.63;;
42978;SDS011;28616;44.746;19.678;2023-04-01T05:28:34;40.60;;;22.17;;
42978;SDS011;28616;44.746;19.678;2023-04-01T05:31:01;27.27;;;13.75;;
42978;SDS011;28616;44.746;19.678;2023-04-01T05:33:28;21.05;;;11.43;;
42978;SDS011;28616;44.746;19.678;2023-04-01T05:35:56;25.95;;;11.48;;
42978;SDS011;28616;44.746;19.678;2023-04-01T05:38:30;22.20;;;11.23;;
42978;SDS011;28616;44.746;19.678;2023-04-01T05:40:59;22.95;;;10.63;;
42978;SDS011;28616;44.746;19.678;2023-04-01T05:43:26;15.75;;;9.52;;
42978;SDS011;28616;44.746;19.678;2023-04-01T05:45:51;25.33;;;12.13;;
42978;SDS011;28616;44.746;19.678;2023-04-01T05:48:17;23.98;;;12.18;;
42978;SDS011;28616;44.746;19.678;2023-04-01T05:50:43;26.02;;;13.10;;
42978;SDS011;28616;44.746;19.678;2023-04-01T05:53:08;19.20;;;8.88;;
42978;SDS011;28616;44.746;19.678;2023-04-01T05:55:35;20.30;;;9.52;;
42978;SDS011;28616;44.746;19.678;2023-04-01T05:58:01;18.20;;;9.75;;
42978;SDS011;28616;44.746;19.678;2023-04-01T06:00:27;22.23;;;9.10;;
42978;SDS011;28616;44.746;19.678;2023-04-01T06:02:52;19.23;;;10.20;;
42978;SDS011;28616;44.746;19.678;2023-04-01T06:05:20;20.83;;;10.68;;
42978;SDS011;28616;44.746;19.678;2023-04-01T06:07:47;20.30;;;10.15;;
42978;SDS011;28616;44.746;19.678;2023-04-01T06:10:20;14.70;;;8.02;;
42978;SDS011;28616;44.746;19.678;2023-04-01T06:18:46;13.52;;;5.10;;
42978;SDS011;28616;44.746;19.678;2023-04-01T06:43:41;12.57;;;7.63;;
42978;SDS011;28616;44.746;19.678;2023-04-01T06:49:20;17.20;;;8.38;;
42978;SDS011;28616;44.746;19.678;2023-04-01T06:56:57;21.52;;;8.25;;
42978;SDS011;28616;44.746;19.678;2023-04-01T06:59:25;12.80;;;6.43;;
42978;SDS011;28616;44.746;19.678;2023-04-01T07:04:29;15.13;;;6.93;;
42978;SDS011;28616;44.746;19.678;2023-04-01T07:09:48;13.15;;;6.60;;
42978;SDS011;28616;44.746;19.678;2023-04-01T07:12:22;15.68;;;8.13;;
42978;SDS011;28616;44.746;19.678;2023-04-01T07:15:19;15.90;;;9.75;;
42978;SDS011;28616;44.746;19.678;2023-04-01T07:18:12;14.27;;;8.88;;
42978;SDS011;28616;44.746;19.678;2023-04-01T07:20:43;11.85;;;6.50;;
42978;SDS011;28616;44.746;19.678;2023-04-01T07:23:16;12.77;;;6.53;;
42978;SDS011;28616;44.746;19.678;2023-04-01T07:25:51;19.90;;;11.23;;
42978;SDS011;28616;44.746;19.678;2023-04-01T07:28:22;62.47;;;22.80;;
42978;SDS011;28616;44.746;19.678;2023-04-01T07:34:08;46.30;;;17.75;;
42978;SDS011;28616;44.746;19.678;2023-04-01T07:42:35;36.03;;;17.25;;
42978;SDS011;28616;44.746;19.678;2023-04-01T07:53:00;23.00;;;10.75;;
42978;SDS011;28616;44.746;19.678;2023-04-01T07:56:08;22.13;;;11.45;;
42978;SDS011;28616;44.746;19.678;2023-04-01T08:01:36;16.27;;;11.05;;
42978;SDS011;28616;44.746;19.678;2023-04-01T08:04:17;21.08;;;10.48;;
42978;SDS011;28616;44.746;19.678;2023-04-01T08:17:38;20.05;;;11.68;;
42978;SDS011;28616;44.746;19.678;2023-04-01T08:20:30;46.45;;;26.13;;
42978;SDS011;28616;44.746;19.678;2023-04-01T08:25:37;28.17;;;12.13;;
42978;SDS011;28616;44.746;19.678;2023-04-01T08:30:52;36.28;;;16.05;;
42978;SDS011;28616;44.746;19.678;2023-04-01T08:33:39;41.63;;;17.80;;
42978;SDS011;28616;44.746;19.678;2023-04-01T08:36:09;71.35;;;31.17;;
42978;SDS011;28616;44.746;19.678;2023-04-01T08:38:42;61.58;;;23.10;;
42978;SDS011;28616;44.746;19.678;2023-04-01T08:44:04;46.47;;;19.27;;
42978;SDS011;28616;44.746;19.678;2023-04-01T08:52:37;28.85;;;11.23;;
42978;SDS011;28616;44.746;19.678;2023-04-01T08:55:31;60.22;;;27.10;;
42978;SDS011;28616;44.746;19.678;2023-04-01T09:00:57;21.30;;;10.00;;
42978;SDS011;28616;44.746;19.678;2023-04-01T09:06:40;38.80;;;16.55;;
42978;SDS011;28616;44.746;19.678;2023-04-01T09:35:14;19.67;;;6.63;;
42978;SDS011;28616;44.746;19.678;2023-04-01T09:37:41;19.02;;;5.60;;
42978;SDS011;28616;44.746;19.678;2023-04-01T09:40:31;22.50;;;9.27;;
42978;SDS011;28616;44.746;19.678;2023-04-01T10:05:09;23.73;;;9.90;;
42978;SDS011;28616;44.746;19.678;2023-04-01T11:28:40;24.27;;;13.45;;
42978;SDS011;28616;44.746;19.678;2023-04-01T11:40:07;37.63;;;15.00;;
42978;SDS011;28616;44.746;19.678;2023-04-01T11:45:29;35.10;;;16.75;;
42978;SDS011;28616;44.746;19.678;2023-04-01T11:48:13;36.17;;;15.10;;
42978;SDS011;28616;44.746;19.678;2023-04-01T11:51:05;27.90;;;15.63;;
42978;SDS011;28616;44.746;19.678;2023-04-01T12:02:55;27.47;;;13.37;;
42978;SDS011;28616;44.746;19.678;2023-04-01T12:05:30;20.75;;;11.40;;
42978;SDS011;28616;44.746;19.678;2023-04-01T12:16:21;16.83;;;7.47;;
42978;SDS011;28616;44.746;19.678;2023-04-01T12:19:32;13.40;;;6.88;;
42978;SDS011;28616;44.746;19.678;2023-04-01T12:24:45;13.55;;;5.88;;
42978;SDS011;28616;44.746;19.678;2023-04-01T12:27:25;20.08;;;9.95;;
42978;SDS011;28616;44.746;19.678;2023-04-01T12:40:51;15.48;;;7.80;;
42978;SDS011;28616;44.746;19.678;2023-04-01T12:54:56;12.88;;;7.10;;
42978;SDS011;28616;44.746;19.678;2023-04-01T13:16:34;23.05;;;11.70;;
42978;SDS011;28616;44.746;19.678;2023-04-01T13:19:08;17.95;;;9.55;;
42978;SDS011;28616;44.746;19.678;2023-04-01T13:24:31;22.58;;;11.63;;
42978;SDS011;28616;44.746;19.678;2023-04-01T13:27:42;18.98;;;10.10;;
42978;SDS011;28616;44.746;19.678;2023-04-01T13:32:49;17.52;;;9.10;;
42978;SDS011;28616;44.746;19.678;2023-04-01T13:40:51;74.75;;;32.67;;
42978;SDS011;28616;44.746;19.678;2023-04-01T13:43:34;93.85;;;37.22;;
42978;SDS011;28616;44.746;19.678;2023-04-01T13:52:10;27.70;;;13.95;;
42978;SDS011;28616;44.746;19.678;2023-04-01T14:00:35;15.50;;;7.72;;
42978;SDS011;28616;44.746;19.678;2023-04-01T14:08:59;19.65;;;9.95;;
42978;SDS011;28616;44.746;19.678;2023-04-01T14:11:42;19.50;;;9.73;;
42978;SDS011;28616;44.746;19.678;2023-04-01T14:17:22;10.68;;;6.40;;
42978;SDS011;28616;44.746;19.678;2023-04-01T14:39:24;15.25;;;6.18;;
42978;SDS011;28616;44.746;19.678;2023-04-01T14:42:07;21.92;;;9.10;;
42978;SDS011;28616;44.746;19.678;2023-04-01T14:50:17;17.83;;;7.93;;
42978;SDS011;28616;44.746;19.678;2023-04-01T14:53:28;11.25;;;5.35;;
42978;SDS011;28616;44.746;19.678;2023-04-01T14:55:50;12.45;;;4.68;;
42978;SDS011;28616;44.746;19.678;2023-04-01T14:58:22;30.40;;;11.07;;
42978;SDS011;28616;44.746;19.678;2023-04-01T15:12:21;21.77;;;5.88;;
42978;SDS011;28616;44.746;19.678;2023-04-01T15:17:54;13.82;;;5.30;;
42978;SDS011;28616;44.746;19.678;2023-04-01T15:23:24;17.48;;;7.68;;
42978;SDS011;28616;44.746;19.678;2023-04-01T15:34:29;8.82;;;4.78;;
42978;SDS011;28616;44.746;19.678;2023-04-01T15:40:11;14.07;;;4.35;;
42978;SDS011;28616;44.746;19.678;2023-04-01T15:51:41;13.05;;;5.32;;
42978;SDS011;28616;44.746;19.678;2023-04-01T16:00:08;13.18;;;5.28;;
42978;SDS011;28616;44.746;19.678;2023-04-01T16:14:24;6.75;;;3.58;;
42978;SDS011;28616;44.746;19.678;2023-04-01T16:22:16;17.65;;;8.35;;
42978;SDS011;28616;44.746;19.678;2023-04-01T16:30:39;30.77;;;12.30;;
42978;SDS011;28616;44.746;19.678;2023-04-01T16:33:28;40.17;;;16.30;;
42978;SDS011;28616;44.746;19.678;2023-04-01T16:36:10;37.47;;;15.95;;
42978;SDS011;28616;44.746;19.678;2023-04-01T16:38:52;36.70;;;15.48;;
42978;SDS011;28616;44.746;19.678;2023-04-01T16:41:49;25.40;;;10.95;;
42978;SDS011;28616;44.746;19.678;2023-04-01T16:47:54;38.85;;;15.52;;
42978;SDS011;28616;44.746;19.678;2023-04-01T16:50:46;30.23;;;14.77;;
42978;SDS011;28616;44.746;19.678;2023-04-01T16:53:19;27.77;;;13.32;;
42978;SDS011;28616;44.746;19.678;2023-04-01T16:55:51;35.22;;;16.05;;
42978;SDS011;28616;44.746;19.678;2023-04-01T16:58:23;33.72;;;16.73;;
42978;SDS011;28616;44.746;19.678;2023-04-01T17:00:58;50.45;;;20.83;;
42978;SDS011;28616;44.746;19.678;2023-04-01T17:03:28;39.65;;;17.60;;
42978;SDS011;28616;44.746;19.678;2023-04-01T17:08:51;28.27;;;12.80;;
42978;SDS011;28616;44.746;19.678;2023-04-01T17:11:45;45.97;;;17.13;;
42978;SDS011;28616;44.746;19.678;2023-04-01T17:14:33;27.90;;;13.00;;
42978;SDS011;28616;44.746;19.678;2023-04-01T17:17:23;26.85;;;10.95;;
42978;SDS011;28616;44.746;19.678;2023-04-01T17:20:20;22.92;;;10.70;;
42978;SDS011;28616;44.746;19.678;2023-04-01T17:23:00;23.33;;;10.88;;
42978;SDS011;28616;44.746;19.678;2023-04-01T17:41:51;36.80;;;18.30;;
42978;SDS011;28616;44.746;19.678;2023-04-01T17:44:40;31.48;;;17.35;;
42978;SDS011;28616;44.746;19.678;2023-04-01T18:07:18;106.72;;;52.92;;
42978;SDS011;28616;44.746;19.678;2023-04-01T18:10:54;96.32;;;46.88;;
42978;SDS011;28616;44.746;19.678;2023-04-01T18:13:39;77.47;;;41.53;;
42978;SDS011;28616;44.746;19.678;2023-04-01T18:22:19;52.08;;;29.20;;
42978;SDS011;28616;44.746;19.678;2023-04-01T18:27:16;71.13;;;35.55;;
42978;SDS011;28616;44.746;19.678;2023-04-01T18:29:49;74.82;;;38.65;;
42978;SDS011;28616;44.746;19.678;2023-04-01T18:38:00;36.55;;;20.35;;
42978;SDS011;28616;44.746;19.678;2023-04-01T18:45:51;62.72;;;28.30;;
42978;SDS011;28616;44.746;19.678;2023-04-01T18:54:02;69.22;;;29.83;;
42978;SDS011;28616;44.746;19.678;2023-04-01T18:56:48;99.30;;;39.33;;
42978;SDS011;28616;44.746;19.678;2023-04-01T18:59:28;117.10;;;48.88;;
42978;SDS011;28616;44.746;19.678;2023-04-01T19:02:14;163.25;;;64.35;;
42978;SDS011;28616;44.746;19.678;2023-04-01T19:07:42;138.88;;;51.42;;
42978;SDS011;28616;44.746;19.678;2023-04-01T19:21:15;27.83;;;12.82;;
42978;SDS011;28616;44.746;19.678;2023-04-01T19:41:30;29.35;;;12.80;;
42978;SDS011;28616;44.746;19.678;2023-04-01T19:47:08;28.75;;;11.38;;
42978;SDS011;28616;44.746;19.678;2023-04-01T19:57:12;58.15;;;25.42;;
42978;SDS011;28616;44.746;19.678;2023-04-01T20:02:42;27.52;;;13.40;;
42978;SDS011;28616;44.746;19.678;2023-04-01T20:05:33;47.25;;;21.48;;
42978;SDS011;28616;44.746;19.678;2023-04-01T20:16:00;22.35;;;10.98;;
42978;SDS011;28616;44.746;19.678;2023-04-01T20:18:35;23.42;;;10.88;;
42978;SDS011;28616;44.746;19.678;2023-04-01T20:21:15;23.58;;;10.32;;
42978;SDS011;28616;44.746;19.678;2023-04-01T20:26:27;26.13;;;11.57;;
42978;SDS011;28616;44.746;19.678;2023-04-01T20:29:17;29.35;;;12.70;;
42978;SDS011;28616;44.746;19.678;2023-04-01T20:31:58;27.15;;;12.00;;
42978;SDS011;28616;44.746;19.678;2023-04-01T20:37:14;24.08;;;10.65;;
42978;SDS011;28616;44.746;19.678;2023-04-01T20:51:15;23.42;;;13.02;;
42978;SDS011;28616;44.746;19.678;2023-04-01T20:53:50;36.00;;;19.35;;
42978;SDS011;28616;44.746;19.678;2023-04-01T21:11:41;29.95;;;14.32;;
42978;SDS011;28616;44.746;19.678;2023-04-01T21:22:50;53.63;;;22.45;;
42978;SDS011;28616;44.746;19.678;2023-04-01T21:28:29;46.97;;;19.27;;
42978;SDS011;28616;44.746;19.678;2023-04-01T21:31:50;40.33;;;17.17;;
42978;SDS011;28616;44.746;19.678;2023-04-01T21:39:25;35.30;;;15.90;;
42978;SDS011;28616;44.746;19.678;2023-04-01T21:56:22;23.33;;;11.02;;
42978;SDS011;28616;44.746;19.678;2023-04-01T22:05:11;31.80;;;12.95;;
42978;SDS011;28616;44.746;19.678;2023-04-01T22:24:49;31.27;;;12.65;;
42978;SDS011;28616;44.746;19.678;2023-04-01T22:27:26;33.20;;;15.82;;
42978;SDS011;28616;44.746;19.678;2023-04-01T22:35:17;23.33;;;12.25;;
42978;SDS011;28616;44.746;19.678;2023-04-01T22:43:37;38.22;;;18.58;;
42978;SDS011;28616;44.746;19.678;2023-04-01T22:46:08;31.67;;;14.68;;
42978;SDS011;28616;44.746;19.678;2023-04-01T22:51:15;47.17;;;17.67;;
42978;SDS011;28616;44.746;19.678;2023-04-01T22:56:17;29.33;;;15.40;;
42978;SDS011;28616;44.746;19.678;2023-04-01T22:58:57;38.35;;;15.70;;
42978;SDS011;28616;44.746;19.678;2023-04-01T23:01:33;89.07;;;34.08;;
42978;SDS011;28616;44.746;19.678;2023-04-01T23:04:05;72.32;;;28.88;;
42978;SDS011;28616;44.746;19.678;2023-04-01T23:06:42;79.32;;;31.27;;
42978;SDS011;28616;44.746;19.678;2023-04-01T23:09:14;76.53;;;31.30;;
42978;SDS011;28616;44.746;19.678;2023-04-01T23:11:59;106.93;;;39.97;;
42978;SDS011;28616;44.746;19.678;2023-04-01T23:27:44;57.53;;;27.73;;
42978;SDS011;28616;44.746;19.678;2023-04-01T23:38:41;84.18;;;38.63;;
42978;SDS011;28616;44.746;19.678;2023-04-01T23:41:08;90.85;;;39.78;;
42978;SDS011;28616;44.746;19.678;2023-04-01T23:43:45;86.82;;;38.47;;
42978;SDS011;28616;44.746;19.678;2023-04-01T23:46:14;105.90;;;45.90;;
42978;SDS011;28616;44.746;19.678;2023-04-01T23:48:41;108.53;;;47.83;;
42978;SDS011;28616;44.746;19.678;2023-04-01T23:57:10;88.82;;;39.15;;
42978;SDS011;28616;44.746;19.678;2023-04-01T23:59:42;78.30;;;34.53;;
